Time;durP1;ratioP1;P1;durP2;ratioP2;P2;SDS_P1;SDS_P2;PMS_P1;PMS_P2;Temp;Humidity;BMP_temperature;BMP_pressure;BME280_temperature;BME280_humidity;BME280_pressure;Samples;Min_cycle;Max_cycle;Signal;HPM_P1;HPM_P2
2023/12/07 00:02:08;;;;;;;49.93;20.53;;;0.00;99.90;;;;;;4955527;29;20260;-90
2023/12/07 00:04:35;;;;;;;51.63;19.27;;;0.10;99.90;;;;;;4937946;29;20248;-89
2023/12/07 00:07:03;;;;;;;50.37;19.10;;;0.10;99.90;;;;;;4922062;29;20293;-89
2023/12/07 00:09:30;;;;;;;48.83;19.30;;;0.10;99.90;;;;;;4955014;29;20197;-89
2023/12/07 00:11:57;;;;;;;50.20;19.90;;;0.10;99.90;;;;;;4953762;29;20276;-90
2023/12/07 00:14:24;;;;;;;50.43;20.00;;;0.10;99.90;;;;;;4937555;29;20206;-89
2023/12/07 00:16:51;;;;;;;48.53;19.70;;;0.20;99.90;;;;;;4937494;29;20292;-90
2023/12/07 00:19:18;;;;;;;60.03;20.00;;;0.10;99.90;;;;;;4955016;29;20214;-89
2023/12/07 00:21:46;;;;;;;50.43;19.60;;;0.10;99.90;;;;;;4955081;29;20295;-90
2023/12/07 00:24:14;;;;;;;48.57;19.17;;;0.10;99.90;;;;;;4953781;29;20232;-89
2023/12/07 00:27:19;;;;;;;54.50;20.70;;;0.20;99.90;;;;;;4954653;29;20277;-90
2023/12/07 00:29:47;;;;;;;49.43;19.53;;;0.10;99.90;;;;;;4876743;29;20720;-89
2023/12/07 00:32:14;;;;;;;54.40;20.23;;;0.10;99.90;;;;;;4861416;29;20227;-89
2023/12/07 00:34:41;;;;;;;51.00;19.97;;;0.10;99.90;;;;;;4861049;29;20271;-89
2023/12/07 00:37:09;;;;;;;52.27;20.70;;;0.10;99.90;;;;;;4860938;29;20268;-90
2023/12/07 00:39:36;;;;;;;51.30;20.77;;;0.10;99.90;;;;;;4845640;29;20215;-90
2023/12/07 00:42:03;;;;;;;47.80;19.37;;;0.20;99.90;;;;;;4876423;29;20331;-90
2023/12/07 00:44:30;;;;;;;51.70;20.60;;;0.20;99.90;;;;;;4860881;29;20363;-90
2023/12/07 00:46:57;;;;;;;56.57;21.03;;;0.10;99.90;;;;;;4861189;29;20242;-90
2023/12/07 00:49:24;;;;;;;56.70;20.93;;;0.10;99.90;;;;;;4876360;29;20197;-90
2023/12/07 00:51:52;;;;;;;56.40;21.17;;;0.00;99.90;;;;;;4860956;29;20770;-90
2023/12/07 00:54:19;;;;;;;57.57;21.20;;;0.10;99.90;;;;;;4876160;29;20197;-91
2023/12/07 00:56:46;;;;;;;57.17;20.97;;;0.10;99.90;;;;;;4875850;29;20247;-90
2023/12/07 00:59:13;;;;;;;55.33;21.30;;;0.10;99.90;;;;;;4876124;29;20209;-90
2023/12/07 01:01:40;;;;;;;54.47;20.40;;;0.10;99.90;;;;;;4875940;29;20217;-90
2023/12/07 01:04:08;;;;;;;57.10;20.83;;;0.10;99.90;;;;;;4927012;28;20213;-91
2023/12/07 01:06:35;;;;;;;58.40;21.10;;;0.10;99.90;;;;;;4940825;29;20205;-90
2023/12/07 01:09:03;;;;;;;56.13;20.53;;;0.20;99.90;;;;;;4940514;29;20195;-90
2023/12/07 01:11:30;;;;;;;58.67;21.40;;;0.20;99.90;;;;;;4957256;29;20273;-90
2023/12/07 01:13:58;;;;;;;52.30;21.17;;;0.20;99.90;;;;;;4956224;29;20228;-91
2023/12/07 01:16:25;;;;;;;59.93;20.37;;;0.20;99.90;;;;;;4940323;29;20232;-90
2023/12/07 01:18:52;;;;;;;56.30;20.00;;;0.30;99.90;;;;;;4957603;29;20564;-90
2023/12/07 01:21:19;;;;;;;59.60;20.60;;;0.20;99.90;;;;;;4957725;29;20222;-90
2023/12/07 01:23:46;;;;;;;49.90;20.40;;;0.20;99.90;;;;;;4940420;29;20563;-90
2023/12/07 01:26:16;;;;;;;58.73;20.73;;;0.20;99.90;;;;;;4957402;28;20691;-91
2023/12/07 01:28:43;;;;;;;59.30;21.33;;;0.20;99.90;;;;;;4957231;29;20252;-90
2023/12/07 01:31:10;;;;;;;60.93;20.57;;;0.30;99.90;;;;;;4939438;29;20236;-90
2023/12/07 01:33:37;;;;;;;55.17;20.87;;;0.20;99.90;;;;;;4955791;29;20206;-89
2023/12/07 01:36:04;;;;;;;57.77;21.67;;;0.10;99.90;;;;;;4939882;29;20198;-90
2023/12/07 01:38:32;;;;;;;58.57;20.83;;;0.20;99.90;;;;;;4939760;29;20659;-90
2023/12/07 01:40:59;;;;;;;50.33;19.90;;;0.30;99.90;;;;;;4923464;29;20320;-90
2023/12/07 01:43:26;;;;;;;59.40;21.07;;;0.30;99.90;;;;;;4939658;29;20686;-91
2023/12/07 01:45:57;;;;;;;62.67;22.73;;;0.30;99.90;;;;;;4939570;29;20228;-90
2023/12/07 01:48:26;;;;;;;59.33;21.00;;;0.30;99.90;;;;;;4940108;29;20296;-90
2023/12/07 01:50:55;;;;;;;71.47;22.50;;;0.20;99.90;;;;;;4939702;29;20206;-90
2023/12/07 01:53:24;;;;;;;64.03;20.67;;;0.20;99.90;;;;;;4956545;29;20194;-91
2023/12/07 01:55:52;;;;;;;61.10;21.43;;;0.30;99.90;;;;;;4956311;29;20276;-91
2023/12/07 01:58:20;;;;;;;58.17;21.23;;;0.30;99.90;;;;;;4956585;29;20205;-90
2023/12/07 02:00:48;;;;;;;58.47;21.73;;;0.20;99.90;;;;;;4939886;29;20553;-90
2023/12/07 02:03:17;;;;;;;68.77;22.10;;;0.30;99.90;;;;;;4923823;29;20655;-88
2023/12/07 02:05:48;;;;;;;61.73;21.47;;;0.30;99.90;;;;;;4939911;29;20222;-90
2023/12/07 02:08:15;;;;;;;60.70;20.37;;;0.30;99.90;;;;;;4939825;29;20235;-90
2023/12/07 02:10:42;;;;;;;68.70;22.07;;;0.30;99.90;;;;;;4923409;29;20687;-91
2023/12/07 02:13:09;;;;;;;68.17;22.13;;;0.30;99.90;;;;;;4955285;29;20199;-91
2023/12/07 02:15:37;;;;;;;67.53;22.27;;;0.30;99.90;;;;;;4956444;28;20251;-91
2023/12/07 02:18:23;;;;;;;60.37;20.93;;;0.40;99.90;;;;;;4939220;29;20280;-90
2023/12/07 02:21:03;;;;;;;64.00;21.07;;;0.40;99.90;;;;;;4956508;29;20209;-90
2023/12/07 02:23:33;;;;;;;61.87;21.17;;;0.30;99.90;;;;;;4956633;29;20549;-91
2023/12/07 02:26:49;;;;;;;66.57;21.50;;;0.40;99.90;;;;;;4955521;29;20221;-90
2023/12/07 02:29:17;;;;;;;62.70;20.67;;;0.40;99.90;;;;;;4939380;29;20207;-90
2023/12/07 02:31:44;;;;;;;65.73;20.47;;;0.40;99.90;;;;;;4954601;29;20619;-90
2023/12/07 02:34:12;;;;;;;63.87;22.83;;;0.40;99.90;;;;;;4955892;29;20202;-91
2023/12/07 02:36:41;;;;;;;63.63;21.87;;;0.40;99.90;;;;;;4955868;29;20195;-91
2023/12/07 02:39:09;;;;;;;65.97;20.97;;;0.40;99.90;;;;;;4955910;28;20293;-91
2023/12/07 02:41:37;;;;;;;62.23;20.83;;;0.40;99.90;;;;;;4938412;29;20230;-90
2023/12/07 02:44:05;;;;;;;59.97;20.73;;;0.40;99.90;;;;;;4955820;29;20195;-91
2023/12/07 02:46:32;;;;;;;68.80;20.57;;;0.30;99.90;;;;;;4954417;29;20196;-91
2023/12/07 02:48:59;;;;;;;60.00;20.27;;;0.30;99.90;;;;;;4955903;29;20206;-91
2023/12/07 02:51:26;;;;;;;67.37;21.70;;;0.40;99.90;;;;;;4955869;29;20268;-90
2023/12/07 02:53:53;;;;;;;68.93;21.00;;;0.40;99.90;;;;;;4955559;29;20196;-90
2023/12/07 02:56:20;;;;;;;64.57;20.30;;;0.50;99.90;;;;;;4955649;29;20293;-91
2023/12/07 02:58:47;;;;;;;71.43;21.93;;;0.40;99.90;;;;;;4955870;29;20202;-91
2023/12/07 03:01:15;;;;;;;64.90;21.73;;;0.50;99.90;;;;;;4955456;29;20268;-90
2023/12/07 03:03:42;;;;;;;62.53;20.80;;;0.40;99.90;;;;;;4955696;29;20613;-91
2023/12/07 03:06:09;;;;;;;65.30;20.93;;;0.50;99.90;;;;;;4938629;29;20211;-91
2023/12/07 03:08:36;;;;;;;64.47;21.47;;;0.50;99.90;;;;;;4956118;29;20599;-92
2023/12/07 03:11:05;;;;;;;63.00;20.17;;;0.50;99.90;;;;;;4955303;29;20275;-90
2023/12/07 03:13:32;;;;;;;63.17;20.40;;;0.50;99.90;;;;;;4955541;29;20191;-90
2023/12/07 03:15:59;;;;;;;59.80;20.23;;;0.50;99.90;;;;;;4938570;29;20205;-91
2023/12/07 03:18:26;;;;;;;67.10;20.40;;;0.40;99.90;;;;;;4955358;29;20206;-91
2023/12/07 03:20:53;;;;;;;66.00;19.90;;;0.40;99.90;;;;;;4955037;28;20194;-91
2023/12/07 03:23:20;;;;;;;58.03;19.40;;;0.40;99.90;;;;;;4938202;29;20201;-92
2023/12/07 03:25:47;;;;;;;59.17;19.47;;;0.40;99.90;;;;;;4937868;29;20232;-90
2023/12/07 03:28:15;;;;;;;61.17;20.07;;;0.40;99.90;;;;;;4937302;29;20704;-91
2023/12/07 03:30:42;;;;;;;58.50;19.83;;;0.40;99.90;;;;;;4955100;29;20202;-91
2023/12/07 03:33:09;;;;;;;59.93;20.20;;;0.40;99.90;;;;;;4954078;29;20202;-91
2023/12/07 03:35:36;;;;;;;59.07;19.87;;;0.40;99.90;;;;;;4954972;29;20216;-92
2023/12/07 03:38:03;;;;;;;57.37;19.63;;;0.40;99.90;;;;;;4955058;29;20249;-91
2023/12/07 03:40:30;;;;;;;57.27;19.33;;;0.40;99.90;;;;;;4954961;29;20230;-92
2023/12/07 03:42:57;;;;;;;62.13;20.17;;;0.40;99.90;;;;;;4954944;29;20576;-92
2023/12/07 03:45:24;;;;;;;51.67;18.93;;;0.50;99.90;;;;;;4938060;29;20255;-91
2023/12/07 03:47:51;;;;;;;52.93;18.67;;;0.50;99.90;;;;;;4954848;28;20208;-91
2023/12/07 03:50:19;;;;;;;50.23;18.77;;;0.50;99.90;;;;;;4953953;28;20192;-91
2023/12/07 03:52:46;;;;;;;52.77;18.50;;;0.40;99.90;;;;;;4955135;29;20254;-91
2023/12/07 03:55:13;;;;;;;54.43;18.73;;;0.40;99.90;;;;;;4954829;29;20203;-90
2023/12/07 03:57:41;;;;;;;51.10;17.97;;;0.40;99.90;;;;;;4937808;29;20230;-91
2023/12/07 04:00:11;;;;;;;53.73;18.93;;;0.40;99.90;;;;;;4953428;29;20206;-91
2023/12/07 04:02:38;;;;;;;53.43;18.10;;;0.50;99.90;;;;;;4937564;29;20245;-90
2023/12/07 04:05:06;;;;;;;52.43;19.10;;;0.50;99.90;;;;;;4954701;29;20279;-91
2023/12/07 04:07:34;;;;;;;54.00;18.70;;;0.50;99.90;;;;;;4954774;28;20287;-92
2023/12/07 04:10:01;;;;;;;51.43;18.23;;;0.50;99.90;;;;;;4937545;29;20192;-92
2023/12/07 04:12:29;;;;;;;51.10;18.40;;;0.40;99.90;;;;;;4937505;29;20307;-91
2023/12/07 04:14:56;;;;;;;51.87;18.53;;;0.40;99.90;;;;;;4954619;29;20256;-91
2023/12/07 04:17:23;;;;;;;52.40;18.00;;;0.50;99.90;;;;;;4954307;29;20200;-91
2023/12/07 04:19:50;;;;;;;48.63;18.47;;;0.40;99.90;;;;;;4953638;29;20202;-91
2023/12/07 04:22:17;;;;;;;49.70;18.73;;;0.50;99.90;;;;;;4954549;29;20276;-91
2023/12/07 04:24:44;;;;;;;56.90;19.40;;;0.50;99.90;;;;;;4954623;29;20229;-91
2023/12/07 04:27:12;;;;;;;59.40;19.90;;;0.40;99.90;;;;;;4954387;29;20243;-92
2023/12/07 04:29:40;;;;;;;53.37;19.53;;;0.40;99.90;;;;;;4953199;29;20238;-91
2023/12/07 04:32:07;;;;;;;56.43;19.87;;;0.40;99.90;;;;;;4937591;29;20752;-90
2023/12/07 04:34:35;;;;;;;56.63;21.60;;;0.40;99.90;;;;;;4936912;29;20211;-91
2023/12/07 04:37:02;;;;;;;62.97;22.70;;;0.40;99.90;;;;;;4921369;29;20351;-90
2023/12/07 04:39:29;;;;;;;65.97;23.00;;;0.40;99.90;;;;;;4938475;29;20239;-90
2023/12/07 04:41:56;;;;;;;63.70;23.07;;;0.40;99.90;;;;;;4924977;29;20233;-89
2023/12/07 04:44:25;;;;;;;59.47;22.90;;;0.40;99.90;;;;;;4941365;29;20343;-89
2023/12/07 04:46:52;;;;;;;71.00;23.03;;;0.40;99.90;;;;;;4958797;29;20265;-89
2023/12/07 04:49:20;;;;;;;66.23;23.47;;;0.50;99.90;;;;;;4958324;29;20194;-90
2023/12/07 04:51:47;;;;;;;65.57;23.37;;;0.50;99.90;;;;;;4925169;29;20310;-89
2023/12/07 04:54:14;;;;;;;65.63;23.60;;;0.50;99.90;;;;;;4958035;29;20199;-90
2023/12/07 04:56:46;;;;;;;66.03;23.27;;;0.50;99.90;;;;;;4940557;29;20231;-90
2023/12/07 04:59:13;;;;;;;64.53;24.03;;;0.50;99.90;;;;;;4940577;29;20212;-89
2023/12/07 05:01:41;;;;;;;63.87;24.30;;;0.50;99.90;;;;;;4941442;29;20668;-88
2023/12/07 05:04:08;;;;;;;69.10;24.13;;;0.50;99.90;;;;;;4943002;29;20213;-89
2023/12/07 05:06:36;;;;;;;68.67;24.90;;;0.40;99.90;;;;;;4943382;29;20198;-89
2023/12/07 05:09:03;;;;;;;68.47;25.37;;;0.50;99.90;;;;;;4941879;29;20630;-90
2023/12/07 05:11:30;;;;;;;70.17;25.87;;;0.50;99.90;;;;;;4957812;29;20296;-89
2023/12/07 05:13:57;;;;;;;72.63;26.53;;;0.50;99.90;;;;;;4957759;29;20228;-82
2023/12/07 05:16:24;;;;;;;68.07;26.13;;;0.50;99.90;;;;;;4957614;29;20335;-83
2023/12/07 05:18:52;;;;;;;69.13;27.97;;;0.50;99.90;;;;;;4957647;29;20282;-82
2023/12/07 05:21:19;;;;;;;73.70;29.50;;;0.50;99.90;;;;;;4941088;29;20277;-81
2023/12/07 05:23:47;;;;;;;75.87;28.53;;;0.50;99.90;;;;;;4940796;29;20217;-82
2023/12/07 05:26:14;;;;;;;76.67;29.30;;;0.50;99.90;;;;;;4956972;29;20245;-82
2023/12/07 05:28:42;;;;;;;77.63;29.43;;;0.50;99.90;;;;;;4940438;29;20392;-82
2023/12/07 05:31:09;;;;;;;76.10;29.03;;;0.50;99.90;;;;;;4957605;29;20200;-81
2023/12/07 05:33:36;;;;;;;75.93;28.80;;;0.50;99.90;;;;;;4939610;29;20213;-82
2023/12/07 05:36:03;;;;;;;75.23;28.57;;;0.50;99.90;;;;;;4955667;29;20206;-82
2023/12/07 05:38:30;;;;;;;70.83;27.43;;;0.50;99.90;;;;;;4939734;29;20221;-82
2023/12/07 05:40:57;;;;;;;76.37;27.87;;;0.50;99.90;;;;;;4957140;29;20677;-82
2023/12/07 05:43:25;;;;;;;66.93;26.27;;;0.50;99.90;;;;;;4956817;29;20218;-82
2023/12/07 05:45:52;;;;;;;72.17;25.80;;;0.40;99.90;;;;;;4939938;29;20377;-82
2023/12/07 05:48:20;;;;;;;62.20;25.10;;;0.50;99.90;;;;;;4939640;29;20217;-82
2023/12/07 05:50:47;;;;;;;62.37;25.17;;;0.40;99.90;;;;;;4938724;29;20200;-82
2023/12/07 05:53:14;;;;;;;60.50;23.50;;;0.40;99.90;;;;;;4939599;29;20200;-83
2023/12/07 05:55:41;;;;;;;58.53;23.47;;;0.40;99.90;;;;;;4935940;29;20427;-81
2023/12/07 05:58:08;;;;;;;52.97;21.43;;;0.40;99.90;;;;;;4937504;29;20219;-83
2023/12/07 06:00:37;;;;;;;57.07;22.03;;;0.40;99.90;;;;;;4937452;29;20201;-83
2023/12/07 06:03:05;;;;;;;48.20;20.67;;;0.40;99.90;;;;;;4939893;29;20226;-82
2023/12/07 06:05:32;;;;;;;53.20;21.53;;;0.40;99.90;;;;;;4937461;29;20216;-83
2023/12/07 06:07:59;;;;;;;48.87;21.03;;;0.50;99.90;;;;;;4937542;29;20211;-82
2023/12/07 06:10:26;;;;;;;48.10;19.47;;;0.40;99.90;;;;;;4937580;29;20209;-82
2023/12/07 06:12:55;;;;;;;46.60;19.40;;;0.50;99.90;;;;;;4939890;29;20210;-82
2023/12/07 06:15:22;;;;;;;49.60;19.57;;;0.50;99.90;;;;;;4961137;29;20224;-82
2023/12/07 06:17:49;;;;;;;43.80;17.43;;;0.50;99.90;;;;;;4961967;29;20214;-82
2023/12/07 06:20:16;;;;;;;46.17;18.00;;;0.50;99.90;;;;;;4977124;28;20272;-82
2023/12/07 06:22:43;;;;;;;45.17;18.40;;;0.50;99.90;;;;;;4960377;29;20254;-82
2023/12/07 06:25:11;;;;;;;44.40;18.13;;;0.50;99.90;;;;;;4936222;29;20195;-82
2023/12/07 06:27:38;;;;;;;44.87;17.47;;;0.50;99.90;;;;;;4937078;29;20245;-82
2023/12/07 06:30:06;;;;;;;38.93;16.77;;;0.50;99.90;;;;;;4937101;29;20187;-82
2023/12/07 06:32:34;;;;;;;42.43;18.00;;;0.50;99.90;;;;;;4935412;29;20233;-82
2023/12/07 06:35:03;;;;;;;40.07;16.53;;;0.50;99.90;;;;;;4936886;29;20211;-83
2023/12/07 06:37:31;;;;;;;38.70;17.17;;;0.50;99.90;;;;;;4936810;29;20205;-84
2023/12/07 06:39:59;;;;;;;40.37;17.30;;;0.50;99.90;;;;;;4936646;29;20205;-87
2023/12/07 06:42:27;;;;;;;40.37;16.53;;;0.50;99.90;;;;;;4935678;29;20651;-85
2023/12/07 06:44:54;;;;;;;40.27;17.07;;;0.60;99.90;;;;;;4936971;29;20303;-86
2023/12/07 06:47:21;;;;;;;38.07;17.03;;;0.60;99.90;;;;;;4936277;29;20238;-83
2023/12/07 06:49:49;;;;;;;38.47;16.70;;;0.60;99.90;;;;;;4936210;29;20189;-86
2023/12/07 06:52:19;;;;;;;40.80;17.17;;;0.60;99.90;;;;;;4936710;29;20209;-86
2023/12/07 06:54:46;;;;;;;39.77;16.90;;;0.60;99.90;;;;;;4936360;28;20287;-87
2023/12/07 06:57:14;;;;;;;41.93;16.90;;;0.60;99.90;;;;;;4931696;29;20246;-85
2023/12/07 06:59:41;;;;;;;35.57;16.10;;;0.70;99.90;;;;;;4900887;29;20569;-86
2023/12/07 07:02:08;;;;;;;38.37;17.30;;;0.60;99.90;;;;;;4917070;29;20198;-87
2023/12/07 07:04:36;;;;;;;43.40;17.90;;;0.60;99.90;;;;;;4916202;29;20202;-87
2023/12/07 07:07:03;;;;;;;38.60;16.63;;;0.70;99.90;;;;;;4917522;29;20661;-87
2023/12/07 07:09:31;;;;;;;38.47;17.53;;;0.60;99.90;;;;;;4917935;29;20220;-86
2023/12/07 07:11:58;;;;;;;39.83;17.57;;;0.70;99.90;;;;;;4915807;29;20243;-85
2023/12/07 07:14:25;;;;;;;36.27;16.47;;;0.70;99.90;;;;;;4917297;29;20247;-87
2023/12/07 07:16:52;;;;;;;38.97;17.13;;;0.70;99.90;;;;;;4915814;29;20205;-88
2023/12/07 07:19:20;;;;;;;38.93;16.37;;;0.80;99.90;;;;;;4916122;29;20196;-86
2023/12/07 07:21:49;;;;;;;40.03;17.60;;;0.70;99.90;;;;;;4900068;29;20202;-89
2023/12/07 07:24:16;;;;;;;41.57;17.87;;;0.70;99.90;;;;;;4916009;29;20236;-89
2023/12/07 07:26:44;;;;;;;37.90;17.50;;;0.70;99.90;;;;;;4916817;29;20221;-90
2023/12/07 07:29:12;;;;;;;41.10;17.57;;;0.70;99.90;;;;;;4916585;29;20212;-90
2023/12/07 07:31:39;;;;;;;37.87;16.50;;;0.80;99.90;;;;;;4915425;29;20207;-86
2023/12/07 07:34:07;;;;;;;40.57;16.77;;;0.80;99.90;;;;;;4915679;29;20193;-87
2023/12/07 07:36:35;;;;;;;40.50;17.67;;;0.80;99.90;;;;;;4915531;29;20193;-87
2023/12/07 07:39:04;;;;;;;39.50;17.47;;;0.80;99.90;;;;;;4915462;29;20209;-90
2023/12/07 07:41:31;;;;;;;41.60;18.40;;;0.90;99.90;;;;;;4915730;29;20235;-87
2023/12/07 07:43:59;;;;;;;39.87;18.03;;;1.00;99.90;;;;;;4915280;29;20221;-89
2023/12/07 07:46:30;;;;;;;37.57;16.73;;;1.00;99.90;;;;;;4916551;29;20257;-91
2023/12/07 07:48:57;;;;;;;43.47;17.97;;;1.00;99.90;;;;;;4917039;29;20558;-89
2023/12/07 07:51:24;;;;;;;38.30;17.37;;;1.00;99.90;;;;;;4916473;29;20204;-88
2023/12/07 07:53:51;;;;;;;40.13;18.47;;;1.00;99.90;;;;;;4916898;29;20672;-86
2023/12/07 07:56:20;;;;;;;39.23;17.73;;;1.00;99.90;;;;;;4924519;29;20320;-87
2023/12/07 07:58:48;;;;;;;46.27;18.47;;;1.00;99.90;;;;;;4935264;29;20215;-88
2023/12/07 08:01:16;;;;;;;41.83;18.07;;;1.00;99.90;;;;;;4934253;29;20205;-90
2023/12/07 08:03:43;;;;;;;43.17;18.87;;;1.00;99.90;;;;;;4934188;29;20227;-88
2023/12/07 08:06:10;;;;;;;43.40;18.20;;;1.10;99.90;;;;;;4950387;29;20710;-87
2023/12/07 08:08:37;;;;;;;41.20;19.03;;;1.10;99.90;;;;;;4935298;29;20204;-87
2023/12/07 08:11:05;;;;;;;40.60;17.80;;;1.10;99.90;;;;;;4934287;29;20217;-85
2023/12/07 08:13:32;;;;;;;44.03;19.17;;;1.10;99.90;;;;;;4935900;29;20214;-86
2023/12/07 08:15:59;;;;;;;44.60;18.67;;;1.10;99.90;;;;;;4934829;29;20205;-84
2023/12/07 08:18:26;;;;;;;44.57;19.87;;;1.10;99.90;;;;;;4917712;29;20225;-88
2023/12/07 08:20:54;;;;;;;42.50;19.03;;;1.10;99.90;;;;;;4933744;28;20241;-86
2023/12/07 08:23:21;;;;;;;43.50;17.83;;;1.00;99.90;;;;;;4935262;29;20228;-88
2023/12/07 08:25:48;;;;;;;44.37;19.43;;;1.00;99.90;;;;;;4935258;29;20218;-86
2023/12/07 08:28:16;;;;;;;41.63;18.57;;;1.00;99.90;;;;;;4935147;29;20541;-86
2023/12/07 08:30:43;;;;;;;42.63;19.37;;;1.10;99.90;;;;;;4935335;29;20199;-86
2023/12/07 08:33:10;;;;;;;38.73;18.40;;;1.10;99.90;;;;;;4935298;29;20295;-86
2023/12/07 08:35:38;;;;;;;38.67;18.33;;;1.10;99.90;;;;;;4933596;29;20329;-84
2023/12/07 08:38:06;;;;;;;45.00;20.17;;;1.10;99.90;;;;;;4933943;29;20216;-83
2023/12/07 08:40:33;;;;;;;43.13;19.40;;;1.10;99.90;;;;;;4933787;29;20302;-83
2023/12/07 08:43:00;;;;;;;43.93;19.13;;;1.10;99.90;;;;;;4934815;29;20272;-82
2023/12/07 08:45:27;;;;;;;49.17;19.60;;;1.10;99.90;;;;;;4933386;29;20209;-82
2023/12/07 08:47:55;;;;;;;43.63;19.57;;;1.20;99.90;;;;;;4935017;29;20203;-83
2023/12/07 08:50:22;;;;;;;45.50;19.87;;;1.20;99.90;;;;;;4933359;29;20213;-84
2023/12/07 08:52:49;;;;;;;47.00;20.90;;;1.20;99.90;;;;;;4934582;29;20191;-83
2023/12/07 08:55:25;;;;;;;47.07;20.43;;;1.20;99.90;;;;;;4935685;29;20647;-83
2023/12/07 08:57:53;;;;;;;45.83;20.37;;;1.20;99.90;;;;;;4936477;29;20217;-84
2023/12/07 09:00:24;;;;;;;46.17;19.63;;;1.20;99.90;;;;;;4936880;29;20234;-81
2023/12/07 09:02:52;;;;;;;45.90;19.43;;;1.20;99.90;;;;;;4953900;29;20293;-82
2023/12/07 09:05:19;;;;;;;46.00;20.37;;;1.20;99.90;;;;;;4937009;29;20208;-83
2023/12/07 09:07:47;;;;;;;41.77;18.87;;;1.30;99.90;;;;;;4936463;29;20219;-87
2023/12/07 09:10:14;;;;;;;46.90;20.60;;;1.20;99.90;;;;;;4936373;29;20296;-81
2023/12/07 09:12:42;;;;;;;45.87;20.07;;;1.20;99.90;;;;;;4953688;29;20199;-84
2023/12/07 09:15:10;;;;;;;49.20;20.33;;;1.30;99.90;;;;;;4936431;29;20618;-83
2023/12/07 09:17:39;;;;;;;40.63;18.70;;;1.30;99.90;;;;;;4937039;29;20208;-83
2023/12/07 09:20:14;;;;;;;47.80;20.37;;;1.30;99.90;;;;;;4952756;29;20311;-84
2023/12/07 09:22:46;;;;;;;48.67;20.03;;;1.30;99.90;;;;;;4953533;29;20217;-83
2023/12/07 09:25:16;;;;;;;43.67;19.63;;;1.20;99.90;;;;;;4936535;28;20193;-83
2023/12/07 09:27:43;;;;;;;45.87;19.13;;;1.30;99.90;;;;;;4939360;29;20192;-83
2023/12/07 09:30:10;;;;;;;49.47;21.00;;;1.20;99.90;;;;;;4957269;29;20256;-83
2023/12/07 09:32:42;;;;;;;43.93;20.30;;;1.20;99.90;;;;;;4939744;29;20212;-83
2023/12/07 09:35:18;;;;;;;48.67;20.43;;;1.20;99.90;;;;;;4940544;29;20253;-82
2023/12/07 09:37:46;;;;;;;49.37;21.40;;;1.30;99.90;;;;;;4939617;29;20255;-82
2023/12/07 09:40:21;;;;;;;47.97;20.80;;;1.30;99.90;;;;;;4955512;29;20579;-80
2023/12/07 09:42:50;;;;;;;45.20;20.20;;;1.20;99.90;;;;;;4939477;29;20427;-81
2023/12/07 09:45:19;;;;;;;48.27;20.63;;;1.20;99.90;;;;;;4939392;29;20209;-81
2023/12/07 09:47:48;;;;;;;45.00;21.00;;;1.20;99.90;;;;;;4940009;29;20245;-82
2023/12/07 09:50:23;;;;;;;47.83;21.37;;;1.20;99.90;;;;;;4956979;29;20246;-83
2023/12/07 09:52:52;;;;;;;44.80;20.13;;;1.30;99.90;;;;;;4939506;29;20190;-82
2023/12/07 09:55:33;;;;;;;46.90;20.10;;;1.30;99.90;;;;;;4941334;29;20256;-83
2023/12/07 09:58:04;;;;;;;47.07;20.40;;;1.50;99.90;;;;;;4956873;29;20227;-83
2023/12/07 10:00:34;;;;;;;45.20;20.60;;;1.50;99.90;;;;;;4940130;29;20543;-81
2023/12/07 10:03:02;;;;;;;49.03;20.63;;;1.40;99.90;;;;;;4939456;29;20212;-80
2023/12/07 10:05:29;;;;;;;46.93;21.20;;;1.40;99.90;;;;;;4956281;29;20184;-80
2023/12/07 10:07:56;;;;;;;45.80;21.10;;;1.40;99.90;;;;;;4956329;29;20553;-82
2023/12/07 10:10:23;;;;;;;47.50;21.17;;;1.30;99.90;;;;;;4956218;29;20202;-81
2023/12/07 10:12:59;;;;;;;46.60;21.37;;;1.30;99.90;;;;;;4956261;29;20209;-81
2023/12/07 10:15:28;;;;;;;44.30;20.70;;;1.30;99.90;;;;;;4939125;29;20206;-80
2023/12/07 10:17:59;;;;;;;50.57;21.00;;;1.30;99.90;;;;;;4939385;29;20268;-80
2023/12/07 10:20:29;;;;;;;43.63;20.87;;;1.40;99.90;;;;;;4939343;29;20207;-83
2023/12/07 10:23:07;;;;;;;48.17;21.43;;;1.40;99.90;;;;;;4955948;29;20722;-82
2023/12/07 10:25:42;;;;;;;47.17;20.47;;;1.50;99.90;;;;;;4956185;29;20252;-82
2023/12/07 10:28:12;;;;;;;45.20;21.03;;;1.30;99.90;;;;;;4955818;29;20209;-81
2023/12/07 10:30:41;;;;;;;45.33;20.80;;;1.30;99.90;;;;;;4938805;29;20190;-81
2023/12/07 10:33:12;;;;;;;46.63;21.27;;;1.40;99.90;;;;;;4956168;29;20198;-83
2023/12/07 10:35:41;;;;;;;45.50;20.63;;;1.40;99.90;;;;;;4939151;29;20606;-82
2023/12/07 10:38:10;;;;;;;44.67;20.73;;;1.50;99.90;;;;;;4955244;28;20222;-82
2023/12/07 10:40:37;;;;;;;45.90;20.77;;;1.50;99.90;;;;;;4938826;29;20222;-82
2023/12/07 10:43:06;;;;;;;43.87;20.60;;;1.50;99.90;;;;;;4938595;29;20218;-81
2023/12/07 10:45:35;;;;;;;41.07;19.97;;;1.50;99.90;;;;;;4938834;29;20206;-81
2023/12/07 10:48:07;;;;;;;45.17;20.07;;;1.40;99.90;;;;;;4938782;29;20226;-81
2023/12/07 10:50:36;;;;;;;45.30;21.03;;;1.50;99.90;;;;;;4938603;29;20202;-81
2023/12/07 10:53:11;;;;;;;45.40;20.70;;;1.40;99.90;;;;;;4955446;29;20201;-79
2023/12/07 10:55:47;;;;;;;43.13;21.70;;;1.40;99.90;;;;;;4955320;29;20234;-79
2023/12/07 10:58:16;;;;;;;44.03;20.37;;;1.40;99.90;;;;;;4938510;29;20249;-80
2023/12/07 11:00:46;;;;;;;44.60;21.10;;;1.40;99.90;;;;;;4955829;29;20252;-81
2023/12/07 11:03:17;;;;;;;43.37;20.20;;;1.40;99.90;;;;;;4938717;29;20196;-81
2023/12/07 11:05:49;;;;;;;42.37;20.40;;;1.40;99.90;;;;;;4955363;29;20677;-81
2023/12/07 11:08:21;;;;;;;45.07;21.13;;;1.40;99.90;;;;;;4938459;29;20536;-81
2023/12/07 11:10:53;;;;;;;44.53;20.70;;;1.40;99.90;;;;;;4938130;29;20682;-81
2023/12/07 11:13:29;;;;;;;46.37;21.20;;;1.50;99.90;;;;;;4954556;29;20206;-82
2023/12/07 11:16:00;;;;;;;43.20;20.50;;;1.50;99.90;;;;;;4938569;29;20446;-82
2023/12/07 11:18:28;;;;;;;43.53;20.93;;;1.60;99.90;;;;;;4955553;29;20204;-81
2023/12/07 11:20:57;;;;;;;43.67;20.77;;;1.50;99.90;;;;;;4953988;29;20198;-80
2023/12/07 11:23:27;;;;;;;46.10;21.17;;;1.50;99.90;;;;;;4938427;29;20243;-80
2023/12/07 11:25:55;;;;;;;47.60;21.33;;;1.40;99.90;;;;;;4938262;29;20638;-80
2023/12/07 11:28:39;;;;;;;43.30;20.63;;;1.30;99.90;;;;;;4938161;29;20260;-80
2023/12/07 11:31:07;;;;;;;51.87;21.97;;;1.20;99.90;;;;;;4954897;29;20207;-81
2023/12/07 11:33:39;;;;;;;48.90;22.37;;;1.20;99.90;;;;;;4954762;29;20198;-81
2023/12/07 11:36:12;;;;;;;49.53;22.30;;;1.10;99.90;;;;;;4938116;29;20230;-81
2023/12/07 11:39:19;;;;;;;47.07;22.13;;;0.90;99.90;;;;;;4953811;29;20275;-80
2023/12/07 11:42:05;;;;;;;46.60;21.53;;;1.00;99.90;;;;;;4954579;29;20242;-81
2023/12/07 11:44:38;;;;;;;45.03;21.53;;;1.10;99.90;;;;;;4954487;29;20672;-81
2023/12/07 11:47:07;;;;;;;49.87;21.70;;;1.10;99.90;;;;;;4953648;29;20204;-81
2023/12/07 11:49:34;;;;;;;55.83;23.23;;;1.20;99.90;;;;;;4952948;28;20233;-80
2023/12/07 11:52:21;;;;;;;50.47;22.53;;;1.20;99.90;;;;;;4954710;29;20226;-81
2023/12/07 11:54:50;;;;;;;48.93;22.17;;;1.20;99.90;;;;;;4937477;29;20223;-80
2023/12/07 11:57:18;;;;;;;51.23;22.80;;;1.30;99.90;;;;;;4954339;29;20249;-81
2023/12/07 11:59:47;;;;;;;48.97;23.07;;;1.30;99.90;;;;;;4954955;29;20206;-78
2023/12/07 12:02:15;;;;;;;46.53;22.70;;;1.40;99.90;;;;;;4954412;29;20194;-87
2023/12/07 12:04:43;;;;;;;48.03;22.57;;;1.30;99.90;;;;;;4954353;29;20221;-81
2023/12/07 12:07:11;;;;;;;52.07;23.17;;;1.20;99.90;;;;;;4954892;29;20198;-85
2023/12/07 12:09:40;;;;;;;45.87;22.50;;;1.00;99.90;;;;;;4954339;29;20274;-79
2023/12/07 12:12:07;;;;;;;53.93;22.90;;;0.80;99.90;;;;;;4954198;29;20279;-81
2023/12/07 12:14:34;;;;;;;51.93;22.77;;;0.80;99.90;;;;;;4937283;29;20721;-88
2023/12/07 12:17:01;;;;;;;49.93;22.97;;;0.80;99.90;;;;;;4954405;29;20578;-82
2023/12/07 12:19:29;;;;;;;49.00;22.27;;;0.80;99.90;;;;;;4954163;29;20186;-80
2023/12/07 12:22:04;;;;;;;51.40;23.70;;;0.70;99.90;;;;;;4938123;29;20201;-82
2023/12/07 12:24:36;;;;;;;49.33;22.93;;;0.70;99.90;;;;;;4954202;29;20211;-83
2023/12/07 12:27:04;;;;;;;47.37;22.40;;;0.70;99.90;;;;;;4954261;29;20222;-82
2023/12/07 12:29:33;;;;;;;46.93;23.00;;;0.70;99.90;;;;;;4954039;29;20673;-82
2023/12/07 12:32:03;;;;;;;46.23;22.30;;;0.70;99.90;;;;;;4937373;29;20201;-85
2023/12/07 12:34:33;;;;;;;50.83;23.17;;;0.70;99.90;;;;;;4954801;29;20257;-82
2023/12/07 12:37:02;;;;;;;51.47;22.93;;;0.70;99.90;;;;;;4956719;29;20201;-82
2023/12/07 12:39:30;;;;;;;50.07;22.73;;;0.70;99.90;;;;;;4952589;29;20605;-83
2023/12/07 12:42:02;;;;;;;50.90;23.10;;;0.70;99.90;;;;;;4937467;29;20252;-81
2023/12/07 12:44:31;;;;;;;49.57;22.67;;;0.70;99.90;;;;;;4936647;29;20563;-81